sensor_id;sensor_type;location;lat;lon;timestamp;pressure;altitude;pressure_sealevel;temperature;humidity
5350;BME280;2697;42.144;24.794;2023-03-03T00:00:48;-12012.13;;;6.38;100.00
5350;BME280;2697;42.144;24.794;2023-03-03T00:03:19;-11347.13;;;6.35;100.00
5350;BME280;2697;42.144;24.794;2023-03-03T00:05:45;-11014.72;;;6.34;100.00
5350;BME280;2697;42.144;24.794;2023-03-03T00:08:10;-11014.97;;;6.35;100.00
5350;BME280;2697;42.144;24.794;2023-03-03T00:10:37;-10683.25;;;6.39;100.00
5350;BME280;2697;42.144;24.794;2023-03-03T00:13:02;-10351.41;;;6.42;100.00
5350;BME280;2697;42.144;24.794;2023-03-03T00:15:28;-10019.22;;;6.43;100.00
5350;BME280;2697;42.144;24.794;2023-03-03T00:17:54;-9684.34;;;6.25;100.00
5350;BME280;2697;42.144;24.794;2023-03-03T00:20:40;-9686.31;;;6.39;100.00
5350;BME280;2697;42.144;24.794;2023-03-03T00:25:51;-9684.91;;;6.29;100.00
5350;BME280;2697;42.144;24.794;2023-03-03T00:28:31;-9685.75;;;6.35;100.00
5350;BME280;2697;42.144;24.794;2023-03-03T00:31:19;-9354.19;;;6.41;100.00
5350;BME280;2697;42.144;24.794;2023-03-03T00:33:49;-9022.41;;;6.46;100.00
5350;BME280;2697;42.144;24.794;2023-03-03T00:36:38;-8357.34;;;6.46;100.00
5350;BME280;2697;42.144;24.794;2023-03-03T00:39:34;-8025.31;;;6.50;100.00
5350;BME280;2697;42.144;24.794;2023-03-03T00:42:00;-7692.31;;;6.47;100.00
5350;BME280;2697;42.144;24.794;2023-03-03T00:44:48;-7027.03;;;6.46;100.00
5350;BME280;2697;42.144;24.794;2023-03-03T00:47:30;-6029.03;;;6.47;100.00
5350;BME280;2697;42.144;24.794;2023-03-03T00:50:23;-4698.34;;;6.56;100.00
5350;BME280;2697;42.144;24.794;2023-03-03T00:52:59;-3699.38;;;6.53;100.00
5350;BME280;2697;42.144;24.794;2023-03-03T00:55:26;-3033.34;;;6.53;100.00
5350;BME280;2697;42.144;24.794;2023-03-03T00:57:51;-2367.19;;;6.51;100.00
5350;BME280;2697;42.144;24.794;2023-03-03T01:00:17;-1367.78;;;6.47;100.00
5350;BME280;2697;42.144;24.794;2023-03-03T01:02:42;-1367.75;;;6.44;100.00
5350;BME280;2697;42.144;24.794;2023-03-03T01:05:12;-1034.63;;;6.48;100.00
5350;BME280;2697;42.144;24.794;2023-03-03T01:07:38;-368.22;;;6.47;100.00
5350;BME280;2697;42.144;24.794;2023-03-03T01:10:03;-34.94;;;6.48;100.00
5350;BME280;2697;42.144;24.794;2023-03-03T01:12:29;298.41;;;6.50;100.00
5350;BME280;2697;42.144;24.794;2023-03-03T01:14:54;1298.31;;;6.47;100.00
5350;BME280;2697;42.144;24.794;2023-03-03T01:17:20;1631.59;;;6.44;100.00
5350;BME280;2697;42.144;24.794;2023-03-03T01:19:45;1965.19;;;6.48;100.00
5350;BME280;2697;42.144;24.794;2023-03-03T01:22:11;1965.41;;;6.52;100.00
5350;BME280;2697;42.144;24.794;2023-03-03T01:24:36;2299.19;;;6.58;100.00
5350;BME280;2697;42.144;24.794;2023-03-03T01:27:01;2632.19;;;6.49;100.00
5350;BME280;2697;42.144;24.794;2023-03-03T01:29:27;1965.16;;;6.48;100.00
5350;BME280;2697;42.144;24.794;2023-03-03T01:31:52;1964.44;;;6.33;100.00
5350;BME280;2697;42.144;24.794;2023-03-03T01:34:17;1298.00;;;6.39;100.00
5350;BME280;2697;42.144;24.794;2023-03-03T01:36:43;1631.03;;;6.32;100.00
5350;BME280;2697;42.144;24.794;2023-03-03T01:39:10;964.59;;;6.37;100.00
5350;BME280;2697;42.144;24.794;2023-03-03T01:41:35;297.81;;;6.26;100.00
5350;BME280;2697;42.144;24.794;2023-03-03T01:44:01;-1367.72;;;6.36;100.00
5350;BME280;2697;42.144;24.794;2023-03-03T01:46:33;-2033.94;;;6.42;100.00
5350;BME280;2697;42.144;24.794;2023-03-03T01:49:02;-2366.88;;;6.37;100.00
5350;BME280;2697;42.144;24.794;2023-03-03T01:51:42;-3365.56;;;6.31;100.00
5350;BME280;2697;42.144;24.794;2023-03-03T01:54:20;-4031.47;;;6.35;100.00
5350;BME280;2697;42.144;24.794;2023-03-03T01:56:50;-4697.31;;;6.39;100.00
5350;BME280;2697;42.144;24.794;2023-03-03T01:59:22;-5030.03;;;6.38;100.00
5350;BME280;2697;42.144;24.794;2023-03-03T02:01:49;-5364.09;;;6.56;100.00
5350;BME280;2697;42.144;24.794;2023-03-03T02:04:16;-4697.81;;;6.47;100.00
5350;BME280;2697;42.144;24.794;2023-03-03T02:06:49;-4031.94;;;6.45;100.00
5350;BME280;2697;42.144;24.794;2023-03-03T02:12:17;-3366.09;;;6.46;100.00
5350;BME280;2697;42.144;24.794;2023-03-03T02:14:43;-3366.16;;;6.47;100.00
5350;BME280;2697;42.144;24.794;2023-03-03T02:17:09;-3033.41;;;6.55;100.00
5350;BME280;2697;42.144;24.794;2023-03-03T02:19:57;-2700.28;;;6.53;100.00
5350;BME280;2697;42.144;24.794;2023-03-03T02:22:47;-2367.38;;;6.62;100.00
5350;BME280;2697;42.144;24.794;2023-03-03T02:25:20;-701.38;;;6.56;100.00
5350;BME280;2697;42.144;24.794;2023-03-03T02:27:47;-1367.81;;;6.54;100.00
5350;BME280;2697;42.144;24.794;2023-03-03T02:30:17;-368.13;;;6.54;100.00
5350;BME280;2697;42.144;24.794;2023-03-03T02:32:43;-1367.81;;;6.53;100.00
5350;BME280;2697;42.144;24.794;2023-03-03T02:37:49;1299.13;;;6.68;100.00
5350;BME280;2697;42.144;24.794;2023-03-03T02:40:17;1965.44;;;6.53;100.00
5350;BME280;2697;42.144;24.794;2023-03-03T02:42:47;-701.47;;;6.41;100.00
5350;BME280;2697;42.144;24.794;2023-03-03T02:45:14;-3698.97;;;6.44;100.00
5350;BME280;2697;42.144;24.794;2023-03-03T02:47:39;-4032.31;;;6.53;100.00
5350;BME280;2697;42.144;24.794;2023-03-03T02:50:05;-4032.22;;;6.51;100.00
5350;BME280;2697;42.144;24.794;2023-03-03T02:52:30;-5030.94;;;6.52;100.00
5350;BME280;2697;42.144;24.794;2023-03-03T02:54:56;-4365.75;;;6.63;100.00
5350;BME280;2697;42.144;24.794;2023-03-03T02:57:21;-4032.19;;;6.50;100.00
5350;BME280;2697;42.144;24.794;2023-03-03T02:59:46;-5030.78;;;6.49;100.00
5350;BME280;2697;42.144;24.794;2023-03-03T03:02:12;-5695.66;;;6.39;100.00
5350;BME280;2697;42.144;24.794;2023-03-03T03:04:37;-7026.16;;;6.37;100.00
5350;BME280;2697;42.144;24.794;2023-03-03T03:07:02;-8022.69;;;6.27;100.00
5350;BME280;2697;42.144;24.794;2023-03-03T03:09:28;-8356.91;;;6.42;100.00
5350;BME280;2697;42.144;24.794;2023-03-03T03:11:53;-8354.66;;;6.23;100.00
5350;BME280;2697;42.144;24.794;2023-03-03T03:14:20;-9351.69;;;6.22;100.00
5350;BME280;2697;42.144;24.794;2023-03-03T03:16:45;-9686.59;;;6.41;100.00
5350;BME280;2697;42.144;24.794;2023-03-03T03:19:11;-8690.41;;;6.50;100.00
5350;BME280;2697;42.144;24.794;2023-03-03T03:21:36;-8357.16;;;6.44;100.00
5350;BME280;2697;42.144;24.794;2023-03-03T03:24:02;-8688.66;;;6.36;100.00
5350;BME280;2697;42.144;24.794;2023-03-03T03:26:27;-9021.31;;;6.38;100.00
5350;BME280;2697;42.144;24.794;2023-03-03T03:28:53;-9351.53;;;6.21;100.00
5350;BME280;2697;42.144;24.794;2023-03-03T03:31:19;-11012.84;;;6.22;100.00
5350;BME280;2697;42.144;24.794;2023-03-03T03:33:45;-11677.13;;;6.22;100.00
5350;BME280;2697;42.144;24.794;2023-03-03T03:36:11;-12344.28;;;6.38;100.00
5350;BME280;2697;42.144;24.794;2023-03-03T03:38:37;-11679.16;;;6.34;100.00
5350;BME280;2697;42.144;24.794;2023-03-03T03:41:03;-11681.41;;;6.47;100.00
5350;BME280;2697;42.144;24.794;2023-03-03T03:43:29;-11017.25;;;6.49;100.00
5350;BME280;2697;42.144;24.794;2023-03-03T03:45:55;-10020.16;;;6.49;100.00
5350;BME280;2697;42.144;24.794;2023-03-03T03:48:20;-10018.25;;;6.36;100.00
5350;BME280;2697;42.144;24.794;2023-03-03T03:50:47;-11011.38;;;6.13;100.00
5350;BME280;2697;42.144;24.794;2023-03-03T03:53:12;-12671.44;;;6.12;100.00
5350;BME280;2697;42.144;24.794;2023-03-03T03:55:38;-14000.94;;;6.20;100.00
5350;BME280;2697;42.144;24.794;2023-03-03T03:58:03;-14667.38;;;6.33;100.00
5350;BME280;2697;42.144;24.794;2023-03-03T04:00:29;-14335.66;;;6.34;100.00
5350;BME280;2697;42.144;24.794;2023-03-03T04:02:55;-14332.59;;;6.19;100.00
5350;BME280;2697;42.144;24.794;2023-03-03T04:05:20;-14662.78;;;6.12;100.00
5350;BME280;2697;42.144;24.794;2023-03-03T04:07:46;-15326.69;;;6.13;100.00
5350;BME280;2697;42.144;24.794;2023-03-03T04:10:11;-15327.38;;;6.16;100.00
5350;BME280;2697;42.144;24.794;2023-03-03T04:12:37;-15659.97;;;6.20;100.00
5350;BME280;2697;42.144;24.794;2023-03-03T04:15:12;-15990.00;;;6.13;100.00
5350;BME280;2697;42.144;24.794;2023-03-03T04:17:38;-16655.25;;;6.20;100.00
5350;BME280;2697;42.144;24.794;2023-03-03T04:20:05;-16324.81;;;6.25;100.00
5350;BME280;2697;42.144;24.794;2023-03-03T04:22:31;-15998.00;;;6.46;100.00
5350;BME280;2697;42.144;24.794;2023-03-03T04:25:01;-14663.22;;;6.14;100.00
5350;BME280;2697;42.144;24.794;2023-03-03T04:27:30;-15993.44;;;6.27;100.00
5350;BME280;2697;42.144;24.794;2023-03-03T04:29:56;-16321.69;;;6.13;100.00
5350;BME280;2697;42.144;24.794;2023-03-03T04:32:21;-16985.09;;;6.13;100.00
5350;BME280;2697;42.144;24.794;2023-03-03T04:34:46;-17983.41;;;6.26;100.00
5350;BME280;2697;42.144;24.794;2023-03-03T04:37:12;-16986.41;;;6.18;100.00
5350;BME280;2697;42.144;24.794;2023-03-03T04:39:37;-17319.34;;;6.23;100.00
5350;BME280;2697;42.144;24.794;2023-03-03T04:42:03;-16654.34;;;6.17;100.00
5350;BME280;2697;42.144;24.794;2023-03-03T04:44:28;-16654.09;;;6.16;100.00
5350;BME280;2697;42.144;24.794;2023-03-03T04:46:53;-17320.84;;;6.29;100.00
5350;BME280;2697;42.144;24.794;2023-03-03T04:49:19;-16989.03;;;6.28;100.00
5350;BME280;2697;42.144;24.794;2023-03-03T04:51:44;-16659.25;;;6.36;100.00
5350;BME280;2697;42.144;24.794;2023-03-03T04:54:09;-15994.94;;;6.33;100.00
5350;BME280;2697;42.144;24.794;2023-03-03T04:56:35;-15990.75;;;6.16;100.00
5350;BME280;2697;42.144;24.794;2023-03-03T04:59:00;-16653.31;;;6.13;100.00
5350;BME280;2697;42.144;24.794;2023-03-03T05:01:26;-17316.00;;;6.11;100.00
5350;BME280;2697;42.144;24.794;2023-03-03T05:03:51;-17648.38;;;6.14;100.00
5350;BME280;2697;42.144;24.794;2023-03-03T05:06:16;-17645.91;;;6.05;100.00
5350;BME280;2697;42.144;24.794;2023-03-03T05:08:43;-18641.47;;;6.09;100.00
5350;BME280;2697;42.144;24.794;2023-03-03T05:11:09;-18641.03;;;6.07;100.00
5350;BME280;2697;42.144;24.794;2023-03-03T05:13:34;-18970.69;;;6.01;100.00
5350;BME280;2697;42.144;24.794;2023-03-03T05:15:59;-19302.34;;;6.02;100.00
5350;BME280;2697;42.144;24.794;2023-03-03T05:18:25;-19305.94;;;6.08;100.00
5350;BME280;2697;42.144;24.794;2023-03-03T05:20:52;-19310.44;;;6.23;100.00
5350;BME280;2697;42.144;24.794;2023-03-03T05:23:18;-18982.94;;;6.43;100.00
5350;BME280;2697;42.144;24.794;2023-03-03T05:25:44;-17324.84;;;6.44;100.00
5350;BME280;2697;42.144;24.794;2023-03-03T05:28:11;-15001.69;;;6.43;100.00
5350;BME280;2697;42.144;24.794;2023-03-03T05:30:36;-13015.59;;;6.75;100.00
5350;BME280;2697;42.144;24.794;2023-03-03T05:33:03;-10687.84;;;6.68;100.00
5350;BME280;2697;42.144;24.794;2023-03-03T05:35:29;-8025.88;;;6.55;100.00
5350;BME280;2697;42.144;24.794;2023-03-03T05:37:54;-6032.06;;;6.85;100.00
5350;BME280;2697;42.144;24.794;2023-03-03T05:40:23;-3367.69;;;6.90;100.00
5350;BME280;2697;42.144;24.794;2023-03-03T05:42:48;-701.22;;;6.77;100.00
5350;BME280;2697;42.144;24.794;2023-03-03T05:45:14;-1367.88;;;6.75;100.00
5350;BME280;2697;42.144;24.794;2023-03-03T05:47:40;-701.13;;;6.91;100.00
5350;BME280;2697;42.144;24.794;2023-03-03T05:50:05;-34.00;;;7.01;100.00
5350;BME280;2697;42.144;24.794;2023-03-03T05:52:30;5643.88;;;7.31;100.00
5350;BME280;2697;42.144;24.794;2023-03-03T05:54:56;9654.75;;;7.21;100.00
5350;BME280;2697;42.144;24.794;2023-03-03T05:57:22;12334.72;;;7.35;100.00
5350;BME280;2697;42.144;24.794;2023-03-03T05:59:47;17363.59;;;7.47;100.00
5350;BME280;2697;42.144;24.794;2023-03-03T06:02:13;23066.16;;;7.42;100.00
5350;BME280;2697;42.144;24.794;2023-03-03T06:04:38;22050.88;;;7.21;100.00
5350;BME280;2697;42.144;24.794;2023-03-03T06:07:04;23739.44;;;7.46;100.00
5350;BME280;2697;42.144;24.794;2023-03-03T06:09:31;27078.03;;;7.00;100.00
5350;BME280;2697;42.144;24.794;2023-03-03T06:11:56;21045.41;;;7.24;100.00
5350;BME280;2697;42.144;24.794;2023-03-03T06:14:21;25756.63;;;7.50;100.00
5350;BME280;2697;42.144;24.794;2023-03-03T06:16:47;34498.53;;;7.41;100.00
5350;BME280;2697;42.144;24.794;2023-03-03T06:19:13;30115.97;;;7.27;100.00
5350;BME280;2697;42.144;24.794;2023-03-03T06:21:39;27103.63;;;7.55;100.00
5350;BME280;2697;42.144;24.794;2023-03-03T06:24:05;32488.63;;;7.59;100.00
5350;BME280;2697;42.144;24.794;2023-03-03T06:26:31;38207.16;;;7.45;100.00
5350;BME280;2697;42.144;24.794;2023-03-03T06:28:57;31817.25;;;7.63;100.00
5350;BME280;2697;42.144;24.794;2023-03-03T06:31:22;42599.03;;;7.55;100.00
5350;BME280;2697;42.144;24.794;2023-03-03T06:33:48;34155.63;;;7.30;100.00
5350;BME280;2697;42.144;24.794;2023-03-03T06:36:13;32825.31;;;7.59;100.00
5350;BME280;2697;42.144;24.794;2023-03-03T06:38:38;41240.00;;;7.42;100.00
5350;BME280;2697;42.144;24.794;2023-03-03T06:41:04;33828.59;;;7.47;100.00
5350;BME280;2697;42.144;24.794;2023-03-03T06:43:33;35856.84;;;7.59;100.00
5350;BME280;2697;42.144;24.794;2023-03-03T06:45:59;35157.28;;;7.16;100.00
5350;BME280;2697;42.144;24.794;2023-03-03T06:48:25;33150.06;;;7.38;100.00
5350;BME280;2697;42.144;24.794;2023-03-03T06:50:50;33813.47;;;7.21;100.00
5350;BME280;2697;42.144;24.794;2023-03-03T06:53:17;31121.75;;;7.21;100.00
5350;BME280;2697;42.144;24.794;2023-03-03T06:55:43;33159.47;;;7.55;100.00
5350;BME280;2697;42.144;24.794;2023-03-03T06:58:14;38902.03;;;7.77;100.00
5350;BME280;2697;42.144;24.794;2023-03-03T07:00:41;43962.13;;;7.72;100.00
5350;BME280;2697;42.144;24.794;2023-03-03T07:03:18;39232.66;;;7.66;100.00
5350;BME280;2697;42.144;24.794;2023-03-03T07:05:46;52445.75;;;8.08;100.00
5350;BME280;2697;42.144;24.794;2023-03-03T07:08:20;60553.03;;;7.80;100.00
5350;BME280;2697;42.144;24.794;2023-03-03T07:10:46;61907.94;;;7.78;100.00
5350;BME280;2697;42.144;24.794;2023-03-03T07:13:26;60907.78;;;7.95;100.00
5350;BME280;2697;42.144;24.794;2023-03-03T07:15:54;64288.66;;;7.82;100.00
5350;BME280;2697;42.144;24.794;2023-03-03T07:20:58;53410.91;;;7.51;100.00
5350;BME280;2697;42.144;24.794;2023-03-03T07:23:25;60874.13;;;7.62;100.00
5350;BME280;2697;42.144;24.794;2023-03-03T07:25:52;62925.97;;;7.78;100.00
5350;BME280;2697;42.144;24.794;2023-03-03T07:30:43;78273.97;;;8.13;100.00
5350;BME280;2697;42.144;24.794;2023-03-03T07:33:18;84377.44;;;7.87;100.00
5350;BME280;2697;42.144;24.794;2023-03-03T07:35:48;70401.78;;;7.80;100.00
5350;BME280;2697;42.144;24.794;2023-03-03T07:40:50;77548.84;;;7.80;100.00
5350;BME280;2697;42.144;24.794;2023-03-03T07:43:37;80291.22;;;7.92;100.00
5350;BME280;2697;42.144;24.794;2023-03-03T07:48:40;80645.19;;;8.02;100.00
5350;BME280;2697;42.144;24.794;2023-03-03T07:53:47;90573.94;;;8.19;100.00
5350;BME280;2697;42.144;24.794;2023-03-03T07:56:33;103218.47;;;8.03;100.00
5350;BME280;2697;42.144;24.794;2023-03-03T07:58:58;119363.84;;;8.00;100.00
5350;BME280;2697;42.144;24.794;2023-03-03T08:01:41;122453.22;;;7.95;100.00
5350;BME280;2697;42.144;24.794;2023-03-03T08:04:40;121831.41;;;8.28;100.00
5350;BME280;2697;42.144;24.794;2023-03-03T08:07:24;127617.84;;;7.92;100.00
5350;BME280;2697;42.144;24.794;2023-03-03T08:09:59;117997.88;;;8.06;100.00
5350;BME280;2697;42.144;24.794;2023-03-03T08:12:33;114586.41;;;8.21;100.00
5350;BME280;2697;42.144;24.794;2023-03-03T08:17:44;111444.25;;;7.96;100.00
5350;BME280;2697;42.144;24.794;2023-03-03T08:22:54;92608.94;;;8.08;100.00
5350;BME280;2697;42.144;24.794;2023-03-03T08:25:19;103245.59;;;8.19;100.00
5350;BME280;2697;42.144;24.794;2023-03-03T08:27:45;112159.09;;;8.11;100.00
5350;BME280;2697;42.144;24.794;2023-03-03T08:30:11;109441.59;;;8.28;100.00
5350;BME280;2697;42.144;24.794;2023-03-03T08:32:36;103957.28;;;8.34;100.00
5350;BME280;2697;42.144;24.794;2023-03-03T08:35:02;101865.91;;;8.14;100.00
5350;BME280;2697;42.144;24.794;2023-03-03T08:37:27;107390.50;;;8.34;100.00
5350;BME280;2697;42.144;24.794;2023-03-03T08:39:53;107696.56;;;8.13;100.00
5350;BME280;2697;42.144;24.794;2023-03-03T08:42:18;110499.78;;;8.43;100.00
5350;BME280;2697;42.144;24.794;2023-03-03T08:44:44;118742.75;;;8.35;100.00
5350;BME280;2697;42.144;24.794;2023-03-03T08:47:09;111186.44;;;8.42;100.00
5350;BME280;2697;42.144;24.794;2023-03-03T08:49:34;97422.34;;;8.21;100.00
5350;BME280;2697;42.144;24.794;2023-03-03T08:52:00;90912.81;;;8.17;100.00
5350;BME280;2697;42.144;24.794;2023-03-03T08:54:25;80029.69;;;8.51;100.00
5350;BME280;2697;42.144;24.794;2023-03-03T08:56:51;85878.00;;;8.81;100.00
5350;BME280;2697;42.144;24.794;2023-03-03T08:59:16;99211.16;;;8.67;100.00
5350;BME280;2697;42.144;24.794;2023-03-03T09:01:42;108109.59;;;8.51;100.00
5350;BME280;2697;42.144;24.794;2023-03-03T09:04:09;80317.09;;;8.11;100.00
5350;BME280;2697;42.144;24.794;2023-03-03T09:06:34;67701.44;;;7.96;100.00
5350;BME280;2697;42.144;24.794;2023-03-03T09:09:00;60574.66;;;8.01;100.00
5350;BME280;2697;42.144;24.794;2023-03-03T09:11:28;60925.91;;;8.13;100.00
5350;BME280;2697;42.144;24.794;2023-03-03T09:14:10;55144.69;;;7.96;100.00
5350;BME280;2697;42.144;24.794;2023-03-03T09:16:42;43971.88;;;7.86;100.00
5350;BME280;2697;42.144;24.794;2023-03-03T09:19:21;48354.28;;;7.71;100.00
5350;BME280;2697;42.144;24.794;2023-03-03T09:21:50;49030.53;;;7.71;100.00
5350;BME280;2697;42.144;24.794;2023-03-03T09:24:27;51060.03;;;7.71;100.00
5350;BME280;2697;42.144;24.794;2023-03-03T09:26:53;47676.09;;;7.69;100.00
5350;BME280;2697;42.144;24.794;2023-03-03T09:29:32;38228.75;;;7.79;100.00
5350;BME280;2697;42.144;24.794;2023-03-03T09:34:41;23753.91;;;7.82;100.00
5350;BME280;2697;42.144;24.794;2023-03-03T09:37:25;15031.94;;;8.03;100.00
5350;BME280;2697;42.144;24.794;2023-03-03T09:39:55;22085.41;;;8.12;100.00
5350;BME280;2697;42.144;24.794;2023-03-03T09:54:38;139669.19;;;9.24;100.00
5350;BME280;2697;42.144;24.794;2023-03-03T09:57:15;154910.91;;;9.09;100.00
5350;BME280;2697;42.144;24.794;2023-03-03T10:02:34;155112.25;;;9.87;100.00
5350;BME280;2697;42.144;24.794;2023-03-03T10:05:18;155125.38;;;9.92;100.00
5350;BME280;2697;42.144;24.794;2023-03-03T10:13:48;155341.34;;;10.76;100.00
5350;BME280;2697;42.144;24.794;2023-03-03T10:19:16;155307.13;;;10.63;100.00
5350;BME280;2697;42.144;24.794;2023-03-03T10:21:50;155375.59;;;10.89;100.00
5350;BME280;2697;42.144;24.794;2023-03-03T10:24:29;155116.19;;;9.89;100.00
5350;BME280;2697;42.144;24.794;2023-03-03T10:27:16;155088.56;;;9.78;100.00
5350;BME280;2697;42.144;24.794;2023-03-03T10:33:00;155122.75;;;9.91;100.00
5350;BME280;2697;42.144;24.794;2023-03-03T10:41:12;155357.16;;;10.82;100.00
5350;BME280;2697;42.144;24.794;2023-03-03T10:44:04;155309.75;;;10.64;100.00
5350;BME280;2697;42.144;24.794;2023-03-03T10:55:12;155482.28;;;11.30;100.00
5350;BME280;2697;42.144;24.794;2023-03-03T11:05:59;155359.78;;;10.83;100.00
5350;BME280;2697;42.144;24.794;2023-03-03T11:08:30;155528.41;;;11.48;100.00
5350;BME280;2697;42.144;24.794;2023-03-03T11:11:24;155494.13;;;11.35;100.00
5350;BME280;2697;42.144;24.794;2023-03-03T11:17:04;155586.38;;;11.70;100.00
5350;BME280;2697;42.144;24.794;2023-03-03T11:19:52;155452.00;;;11.19;100.00
5350;BME280;2697;42.144;24.794;2023-03-03T11:22:44;155603.50;;;11.77;100.00
5350;BME280;2697;42.144;24.794;2023-03-03T11:28:11;155740.69;;;12.30;100.00
5350;BME280;2697;42.144;24.794;2023-03-03T11:30:50;155668.16;;;12.02;100.00
5350;BME280;2697;42.144;24.794;2023-03-03T11:33:34;155657.59;;;11.98;100.00
5350;BME280;2697;42.144;24.794;2023-03-03T11:36:24;155749.91;;;12.34;100.00
5350;BME280;2697;42.144;24.794;2023-03-03T11:38:59;155868.59;;;12.79;100.00
5350;BME280;2697;42.144;24.794;2023-03-03T11:41:33;155694.53;;;12.12;100.00
5350;BME280;2697;42.144;24.794;2023-03-03T11:46:53;155573.22;;;11.65;100.00
5350;BME280;2697;42.144;24.794;2023-03-03T12:03:16;155747.25;;;12.33;100.00
5350;BME280;2697;42.144;24.794;2023-03-03T12:22:37;155491.47;;;11.34;100.00
5350;BME280;2697;42.144;24.794;2023-03-03T12:25:32;155520.50;;;11.45;100.00
5350;BME280;2697;42.144;24.794;2023-03-03T12:39:01;155462.50;;;11.23;100.00
5350;BME280;2697;42.144;24.794;2023-03-03T12:47:52;155408.50;;;11.02;100.00
5350;BME280;2697;42.144;24.794;2023-03-03T12:50:33;155330.81;;;10.72;100.00
5350;BME280;2697;42.144;24.794;2023-03-03T12:53:17;155271.53;;;10.49;100.00
5350;BME280;2697;42.144;24.794;2023-03-03T12:56:04;155457.25;;;11.21;100.00
5350;BME280;2697;42.144;24.794;2023-03-03T12:58:42;155516.53;;;11.43;100.00
5350;BME280;2697;42.144;24.794;2023-03-03T13:04:24;155569.28;;;11.64;100.00
5350;BME280;2697;42.144;24.794;2023-03-03T13:15:21;155315.00;;;10.66;100.00
5350;BME280;2697;42.144;24.794;2023-03-03T13:20:29;155359.78;;;10.83;100.00
5350;BME280;2697;42.144;24.794;2023-03-03T13:28:34;155272.84;;;10.49;100.00
5350;BME280;2697;42.144;24.794;2023-03-03T13:31:14;155228.06;;;10.32;100.00
5350;BME280;2697;42.144;24.794;2023-03-03T13:33:54;155313.69;;;10.65;100.00
5350;BME280;2697;42.144;24.794;2023-03-03T13:36:25;155171.44;;;10.10;100.00
5350;BME280;2697;42.144;24.794;2023-03-03T13:38:55;155093.81;;;9.80;100.00
5350;BME280;2697;42.144;24.794;2023-03-03T13:41:29;155246.53;;;10.39;100.00
5350;BME280;2697;42.144;24.794;2023-03-03T13:44:05;155239.94;;;10.37;100.00
5350;BME280;2697;42.144;24.794;2023-03-03T13:47:10;155258.41;;;10.44;100.00
5350;BME280;2697;42.144;24.794;2023-03-03T13:55:35;155284.72;;;10.54;100.00
5350;BME280;2697;42.144;24.794;2023-03-03T14:01:00;155104.31;;;9.84;100.00
5350;BME280;2697;42.144;24.794;2023-03-03T14:06:02;155101.69;;;9.83;100.00
5350;BME280;2697;42.144;24.794;2023-03-03T14:08:41;155113.56;;;9.88;100.00
5350;BME280;2697;42.144;24.794;2023-03-03T14:11:34;155150.38;;;10.02;100.00
5350;BME280;2697;42.144;24.794;2023-03-03T14:14:32;155125.38;;;9.92;100.00
5350;BME280;2697;42.144;24.794;2023-03-03T14:17:05;155104.31;;;9.84;100.00
5350;BME280;2697;42.144;24.794;2023-03-03T14:25:57;155191.19;;;10.18;100.00
5350;BME280;2697;42.144;24.794;2023-03-03T14:28:27;155162.25;;;10.07;100.00
5350;BME280;2697;42.144;24.794;2023-03-03T14:30:56;155070.13;;;9.71;100.00
5350;BME280;2697;42.144;24.794;2023-03-03T14:33:26;155081.94;;;9.76;100.00
5350;BME280;2697;42.144;24.794;2023-03-03T14:38:35;155101.69;;;9.83;100.00
5350;BME280;2697;42.144;24.794;2023-03-03T14:44:20;155066.19;;;9.69;100.00
5350;BME280;2697;42.144;24.794;2023-03-03T14:48:52;155037.19;;;9.58;100.00
5350;BME280;2697;42.144;24.794;2023-03-03T14:51:47;155034.56;;;9.57;100.00
5350;BME280;2697;42.144;24.794;2023-03-03T14:54:25;155025.38;;;9.54;100.00
5350;BME280;2697;42.144;24.794;2023-03-03T14:57:00;155050.38;;;9.63;100.00
5350;BME280;2697;42.144;24.794;2023-03-03T14:59:27;154997.75;;;9.43;100.00
5350;BME280;2697;42.144;24.794;2023-03-03T15:02:23;155029.31;;;9.55;100.00
5350;BME280;2697;42.144;24.794;2023-03-03T15:05:12;155092.50;;;9.80;100.00
5350;BME280;2697;42.144;24.794;2023-03-03T15:07:38;154995.13;;;9.42;100.00
5350;BME280;2697;42.144;24.794;2023-03-03T15:10:05;155010.88;;;9.48;100.00
5350;BME280;2697;42.144;24.794;2023-03-03T15:20:44;155018.81;;;9.51;100.00
5350;BME280;2697;42.144;24.794;2023-03-03T15:23:58;154980.63;;;9.36;100.00
5350;BME280;2697;42.144;24.794;2023-03-03T15:29:21;155037.19;;;9.58;100.00
5350;BME280;2697;42.144;24.794;2023-03-03T15:31:59;155021.44;;;9.52;100.00
5350;BME280;2697;42.144;24.794;2023-03-03T15:42:31;154950.41;;;9.25;100.00
5350;BME280;2697;42.144;24.794;2023-03-03T16:01:59;154834.66;;;8.80;100.00
5350;BME280;2697;42.144;24.794;2023-03-03T16:04:32;154882.00;;;8.98;100.00
5350;BME280;2697;42.144;24.794;2023-03-03T16:09:40;154883.31;;;8.99;100.00
5350;BME280;2697;42.144;24.794;2023-03-03T16:12:23;154858.31;;;8.89;100.00
5350;BME280;2697;42.144;24.794;2023-03-03T16:18:21;154772.84;;;8.56;100.00
5350;BME280;2697;42.144;24.794;2023-03-03T16:23:30;154801.81;;;8.67;100.00
5350;BME280;2697;42.144;24.794;2023-03-03T16:31:52;154730.81;;;8.40;100.00
5350;BME280;2697;42.144;24.794;2023-03-03T16:45:33;154730.81;;;8.40;100.00
5350;BME280;2697;42.144;24.794;2023-03-03T16:48:17;154688.69;;;8.23;100.00
5350;BME280;2697;42.144;24.794;2023-03-03T16:50:53;154663.72;;;8.14;100.00
5350;BME280;2697;42.144;24.794;2023-03-03T16:56:22;152012.34;;;8.12;100.00
5350;BME280;2697;42.144;24.794;2023-03-03T17:04:10;132106.75;;;7.93;100.00
5350;BME280;2697;42.144;24.794;2023-03-03T17:06:52;121384.78;;;7.78;100.00
5350;BME280;2697;42.144;24.794;2023-03-03T17:12:13;106239.47;;;7.65;100.00
5350;BME280;2697;42.144;24.794;2023-03-03T17:22:30;79184.53;;;7.28;100.00
5350;BME280;2697;42.144;24.794;2023-03-03T17:41:51;43884.44;;;6.67;100.00
5350;BME280;2697;42.144;24.794;2023-03-03T17:44:59;42203.75;;;6.74;100.00
5350;BME280;2697;42.144;24.794;2023-03-03T18:01:07;20361.28;;;6.86;100.00
5350;BME280;2697;42.144;24.794;2023-03-03T18:06:47;19355.03;;;6.84;100.00
5350;BME280;2697;42.144;24.794;2023-03-03T18:09:23;15002.84;;;6.92;100.00
5350;BME280;2697;42.144;24.794;2023-03-03T18:11:58;15332.06;;;6.71;100.00
5350;BME280;2697;42.144;24.794;2023-03-03T18:22:51;15653.69;;;6.23;100.00
5350;BME280;2697;42.144;24.794;2023-03-03T18:33:41;10639.72;;;6.24;100.00
5350;BME280;2697;42.144;24.794;2023-03-03T18:39:00;10307.56;;;6.34;100.00